Time;durP1;ratioP1;P1;durP2;ratioP2;P2;SDS_P1;SDS_P2;PMS_P1;PMS_P2;Temp;Humidity;BMP_temperature;BMP_pressure;BME280_temperature;BME280_humidity;BME280_pressure;Samples;Min_cycle;Max_cycle;Signal;HPM_P1;HPM_P2
2022/01/03 00:00:29;;;;;;;7.55;4.30;;;10.70;99.90;;;;;;4918032;29;20388;-80
2022/01/03 00:02:58;;;;;;;9.15;4.78;;;10.60;99.90;;;;;;4919043;29;20403;-81
2022/01/03 00:05:25;;;;;;;5.95;4.03;;;10.60;99.90;;;;;;4915763;29;20395;-81
2022/01/03 00:07:53;;;;;;;9.48;4.78;;;10.50;99.90;;;;;;4916997;29;20429;-79
2022/01/03 00:10:20;;;;;;;6.57;4.97;;;10.50;99.90;;;;;;4918290;29;20447;-81
2022/01/03 00:12:47;;;;;;;8.65;5.55;;;10.40;99.90;;;;;;4915985;29;20889;-81
2022/01/03 00:15:15;;;;;;;10.35;5.10;;;10.40;99.90;;;;;;4913345;29;20878;-80
2022/01/03 00:17:42;;;;;;;7.13;5.13;;;10.40;99.90;;;;;;4899950;29;20451;-79
2022/01/03 00:20:10;;;;;;;6.85;4.70;;;10.40;99.90;;;;;;4918336;29;20459;-79
2022/01/03 00:23:06;;;;;;;7.97;5.10;;;10.40;99.90;;;;;;4900636;29;20423;-80
2022/01/03 00:25:36;;;;;;;8.00;4.93;;;10.40;99.90;;;;;;4910875;29;20446;-80
2022/01/03 00:28:16;;;;;;;7.75;4.65;;;10.40;99.90;;;;;;4917971;29;20383;-81
2022/01/03 00:30:44;;;;;;;7.00;4.57;;;10.40;99.90;;;;;;4899048;29;20394;-81
2022/01/03 00:33:10;;;;;;;9.20;5.28;;;10.40;99.90;;;;;;4909075;29;20748;-81
2022/01/03 00:35:41;;;;;;;8.02;5.07;;;10.40;99.90;;;;;;4914175;29;20388;-80
2022/01/03 00:38:11;;;;;;;9.40;5.47;;;10.40;99.90;;;;;;4914245;29;20986;-81
2022/01/03 00:40:37;;;;;;;6.40;5.15;;;10.30;99.90;;;;;;4911450;29;20383;-81
2022/01/03 00:43:04;;;;;;;8.73;5.65;;;10.20;99.90;;;;;;4914046;29;20759;-81
2022/01/03 00:45:31;;;;;;;8.53;5.73;;;10.20;99.90;;;;;;4895832;29;20388;-82
2022/01/03 00:47:57;;;;;;;9.00;5.87;;;10.10;99.90;;;;;;4914570;29;20489;-81
2022/01/03 00:50:24;;;;;;;10.97;6.20;;;10.00;99.90;;;;;;4896866;29;20384;-81
2022/01/03 00:52:51;;;;;;;8.45;5.60;;;9.90;99.90;;;;;;4914888;29;20872;-80
2022/01/03 00:55:18;;;;;;;8.40;5.20;;;9.80;99.90;;;;;;4898155;29;20387;-81
2022/01/03 00:58:05;;;;;;;8.05;5.25;;;9.80;99.90;;;;;;4915132;29;20379;-80
2022/01/03 01:00:36;;;;;;;7.03;4.63;;;9.80;99.90;;;;;;4898283;29;20470;-80
2022/01/03 01:03:27;;;;;;;6.53;4.53;;;9.90;99.90;;;;;;4915010;29;21040;-81
2022/01/03 01:05:53;;;;;;;9.77;4.90;;;9.80;99.90;;;;;;4898456;29;20783;-81
2022/01/03 01:08:22;;;;;;;8.50;4.22;;;9.70;99.90;;;;;;4899671;29;20396;-80
2022/01/03 01:10:51;;;;;;;8.98;4.60;;;9.80;99.90;;;;;;4899140;29;20380;-80
2022/01/03 01:13:19;;;;;;;5.80;4.18;;;9.80;99.90;;;;;;4912891;29;20462;-80
2022/01/03 01:15:44;;;;;;;5.50;4.03;;;9.80;99.90;;;;;;4915030;29;20375;-81
2022/01/03 01:18:10;;;;;;;6.80;3.80;;;9.80;99.90;;;;;;4898555;29;20479;-82
2022/01/03 01:20:39;;;;;;;6.07;4.00;;;9.80;99.90;;;;;;4897950;29;20469;-79
2022/01/03 01:23:16;;;;;;;4.55;3.65;;;9.80;99.90;;;;;;4897772;29;20925;-81
2022/01/03 01:28:15;;;;;;;4.88;3.00;;;9.80;99.90;;;;;;4917332;29;20372;-81
2022/01/03 01:30:41;;;;;;;5.10;3.13;;;9.80;99.90;;;;;;4917336;29;20431;-82
2022/01/03 01:33:13;;;;;;;5.93;3.00;;;9.70;99.90;;;;;;4898863;29;20814;-82
2022/01/03 01:35:50;;;;;;;4.13;2.45;;;9.80;99.90;;;;;;4915965;29;20392;-82
2022/01/03 01:38:18;;;;;;;4.43;2.70;;;9.80;99.90;;;;;;4899192;29;20411;-82
2022/01/03 01:40:51;;;;;;;3.60;2.63;;;9.80;99.90;;;;;;4898945;29;20415;-83
2022/01/03 01:43:29;;;;;;;3.58;2.25;;;9.80;99.90;;;;;;4880575;29;21012;-81
2022/01/03 01:45:58;;;;;;;3.60;2.47;;;9.70;99.90;;;;;;4898109;29;20688;-82
2022/01/03 01:48:26;;;;;;;2.63;2.20;;;9.80;99.90;;;;;;4916094;29;20406;-81
2022/01/03 01:50:52;;;;;;;4.72;2.50;;;9.80;99.90;;;;;;4898986;29;20400;-81
2022/01/03 01:53:28;;;;;;;5.38;2.50;;;9.80;99.90;;;;;;4915400;29;20384;-82
2022/01/03 01:55:57;;;;;;;2.30;2.00;;;9.70;99.90;;;;;;4916290;29;20415;-82
2022/01/03 01:59:03;;;;;;;5.10;2.60;;;9.70;99.90;;;;;;4915284;29;20372;-81
2022/01/03 02:01:45;;;;;;;3.85;2.50;;;9.70;99.90;;;;;;4915702;29;20886;-81
2022/01/03 02:04:33;;;;;;;3.08;2.10;;;9.60;99.90;;;;;;4897039;29;20395;-81
2022/01/03 02:07:26;;;;;;;3.60;1.80;;;9.60;99.90;;;;;;4886434;29;20387;-82
2022/01/03 02:10:03;;;;;;;2.83;1.55;;;9.60;99.90;;;;;;4897128;29;20435;-82
2022/01/03 02:12:34;;;;;;;2.77;1.70;;;9.60;99.90;;;;;;4896696;29;20388;-82
2022/01/03 02:15:00;;;;;;;2.80;1.70;;;9.60;99.90;;;;;;4896506;29;20748;-82
2022/01/03 02:17:26;;;;;;;3.58;1.55;;;9.60;99.90;;;;;;4897839;29;20941;-82
2022/01/03 02:20:08;;;;;;;2.00;1.50;;;9.70;99.90;;;;;;4897205;29;20387;-81
2022/01/03 02:22:35;;;;;;;1.57;1.30;;;9.70;99.90;;;;;;4897778;29;20450;-81
2022/01/03 02:25:01;;;;;;;1.67;1.52;;;9.70;99.90;;;;;;4919217;29;20379;-81
2022/01/03 02:27:27;;;;;;;3.08;1.60;;;9.80;99.90;;;;;;4904581;29;20388;-82
2022/01/03 02:29:52;;;;;;;2.00;1.70;;;9.70;99.90;;;;;;4920461;29;20411;-81
2022/01/03 02:32:18;;;;;;;2.65;1.75;;;9.70;99.90;;;;;;4921009;29;20387;-81
2022/01/03 02:34:44;;;;;;;2.35;1.48;;;9.80;99.90;;;;;;4920232;29;20383;-81
2022/01/03 02:37:09;;;;;;;2.60;1.43;;;9.70;99.90;;;;;;4921500;29;20392;-82
2022/01/03 02:39:36;;;;;;;2.87;1.50;;;9.70;99.90;;;;;;4921194;29;20387;-82
2022/01/03 02:42:02;;;;;;;2.53;1.52;;;9.60;99.90;;;;;;4919654;29;20418;-82
2022/01/03 02:44:27;;;;;;;1.93;1.57;;;9.60;99.90;;;;;;4901947;29;20411;-80
2022/01/03 02:46:53;;;;;;;2.30;1.60;;;9.60;99.90;;;;;;4919977;29;20739;-82
2022/01/03 02:49:18;;;;;;;2.83;1.50;;;9.70;99.90;;;;;;4903219;29;20383;-81
2022/01/03 02:51:45;;;;;;;2.03;1.60;;;9.60;99.90;;;;;;4902858;29;20400;-81
2022/01/03 02:54:12;;;;;;;2.38;1.40;;;9.60;99.90;;;;;;4902803;29;20408;-82
2022/01/03 02:56:41;;;;;;;3.37;1.63;;;9.70;99.90;;;;;;4903004;29;20506;-81
2022/01/03 02:59:14;;;;;;;2.83;1.42;;;9.60;99.90;;;;;;4920554;29;20412;-82
2022/01/03 03:01:44;;;;;;;3.65;1.63;;;9.70;99.90;;;;;;4920495;29;20411;-82
2022/01/03 03:04:09;;;;;;;2.53;1.20;;;9.60;99.90;;;;;;4920126;29;20395;-81
2022/01/03 03:06:35;;;;;;;2.72;1.50;;;9.60;99.90;;;;;;4903214;29;20885;-81
2022/01/03 03:09:06;;;;;;;2.03;1.30;;;9.50;99.90;;;;;;4920295;29;20478;-82
2022/01/03 03:11:34;;;;;;;1.70;1.30;;;9.60;99.90;;;;;;4903709;29;20803;-82
2022/01/03 03:14:00;;;;;;;2.97;1.60;;;9.50;99.90;;;;;;4920298;29;20859;-80
2022/01/03 03:16:25;;;;;;;3.08;1.67;;;9.50;99.90;;;;;;4926921;29;20399;-81
2022/01/03 03:18:51;;;;;;;2.42;1.55;;;9.50;99.90;;;;;;4905767;29;20452;-81
2022/01/03 03:21:17;;;;;;;3.00;1.50;;;9.50;99.90;;;;;;4902329;29;20422;-81
2022/01/03 03:23:43;;;;;;;3.17;1.30;;;9.50;99.90;;;;;;4918886;29;20458;-82
2022/01/03 03:26:10;;;;;;;1.90;1.43;;;9.50;99.90;;;;;;4919355;29;20434;-81
2022/01/03 03:28:36;;;;;;;2.77;1.50;;;9.40;99.90;;;;;;4902190;29;20392;-81
2022/01/03 03:31:02;;;;;;;3.27;1.80;;;9.30;99.90;;;;;;4918689;29;20496;-81
2022/01/03 03:33:29;;;;;;;3.17;1.70;;;9.30;99.90;;;;;;4918652;29;20407;-82
2022/01/03 03:35:56;;;;;;;4.55;1.67;;;9.30;99.90;;;;;;4916486;29;20446;-81
2022/01/03 03:38:25;;;;;;;3.42;1.83;;;9.30;99.90;;;;;;4899126;29;20471;-82
2022/01/03 03:40:52;;;;;;;3.53;1.70;;;9.30;99.90;;;;;;4898745;29;20445;-80
2022/01/03 03:43:18;;;;;;;3.80;1.80;;;9.30;99.90;;;;;;4915423;29;20874;-81
2022/01/03 03:45:45;;;;;;;3.78;1.95;;;9.30;99.90;;;;;;4898615;29;20399;-80
2022/01/03 03:48:11;;;;;;;2.85;2.13;;;9.30;99.90;;;;;;4916241;29;20388;-80
2022/01/03 03:50:37;;;;;;;3.25;1.92;;;9.30;99.90;;;;;;4915836;29;20393;-81
2022/01/03 03:53:04;;;;;;;3.13;2.00;;;9.30;99.90;;;;;;4898382;29;20387;-81
2022/01/03 03:55:31;;;;;;;2.10;1.70;;;9.30;99.90;;;;;;4915087;29;20388;-80
2022/01/03 03:57:57;;;;;;;2.53;1.60;;;9.30;99.90;;;;;;4915802;29;20383;-81
2022/01/03 04:00:23;;;;;;;3.83;2.00;;;9.30;99.90;;;;;;4915413;29;20490;-81
2022/01/03 04:02:49;;;;;;;2.60;1.20;;;9.30;99.90;;;;;;4915490;29;20895;-80
2022/01/03 04:05:15;;;;;;;2.63;1.00;;;9.30;99.90;;;;;;4915456;29;20942;-80
2022/01/03 04:07:40;;;;;;;1.80;0.80;;;9.30;99.90;;;;;;4899379;29;20388;-79
2022/01/03 04:10:08;;;;;;;2.05;0.60;;;9.30;99.90;;;;;;4900361;29;20396;-80
2022/01/03 04:12:34;;;;;;;1.30;0.73;;;9.30;99.90;;;;;;4915909;29;20438;-80
2022/01/03 04:15:00;;;;;;;1.53;0.47;;;9.30;99.90;;;;;;4898377;29;20466;-81
2022/01/03 04:17:25;;;;;;;0.83;0.50;;;9.30;99.90;;;;;;4898836;29;20410;-81
2022/01/03 04:19:51;;;;;;;2.40;0.50;;;9.30;99.90;;;;;;4900004;29;20392;-83
2022/01/03 04:22:17;;;;;;;0.37;0.37;;;9.30;99.90;;;;;;4900144;29;20424;-81
2022/01/03 04:24:42;;;;;;;0.53;0.47;;;9.30;99.90;;;;;;4915966;29;20399;-83
2022/01/03 04:27:08;;;;;;;0.70;0.70;;;9.30;99.90;;;;;;4916527;29;20371;-82
2022/01/03 04:29:33;;;;;;;0.73;0.40;;;9.30;99.90;;;;;;4900048;29;20399;-82
2022/01/03 04:31:59;;;;;;;2.40;0.83;;;9.30;99.90;;;;;;4914616;29;20423;-82
2022/01/03 04:34:25;;;;;;;1.02;0.50;;;9.30;99.90;;;;;;4899025;29;20739;-84
2022/01/03 04:36:50;;;;;;;0.93;0.57;;;9.30;99.90;;;;;;4916395;29;20898;-81
2022/01/03 04:39:16;;;;;;;0.63;0.50;;;9.30;99.90;;;;;;4916318;29;20386;-82
2022/01/03 04:41:42;;;;;;;1.05;0.60;;;9.20;99.90;;;;;;4898947;29;20486;-82
2022/01/03 04:44:08;;;;;;;0.80;0.57;;;9.20;99.90;;;;;;4916200;29;20420;-83
2022/01/03 04:46:34;;;;;;;0.80;0.40;;;9.20;99.90;;;;;;4915774;29;20396;-82
2022/01/03 04:49:01;;;;;;;1.33;0.70;;;9.20;99.90;;;;;;4916284;29;20455;-84
2022/01/03 04:51:26;;;;;;;1.30;0.70;;;9.20;99.90;;;;;;4916860;29;20386;-82
2022/01/03 04:53:52;;;;;;;1.33;0.60;;;9.20;99.90;;;;;;4898326;29;20396;-82
2022/01/03 04:56:20;;;;;;;1.73;0.70;;;9.20;99.90;;;;;;4916589;29;20984;-84
2022/01/03 04:58:45;;;;;;;1.42;0.90;;;9.20;99.90;;;;;;4899927;29;20486;-81
2022/01/03 05:01:12;;;;;;;1.43;0.80;;;9.20;99.90;;;;;;4915749;29;20511;-82
2022/01/03 05:03:38;;;;;;;1.88;0.88;;;9.10;99.90;;;;;;4898849;29;20391;-83
2022/01/03 05:06:03;;;;;;;2.00;0.70;;;9.10;99.90;;;;;;4915355;29;20426;-84
2022/01/03 05:08:31;;;;;;;0.90;0.82;;;9.00;99.90;;;;;;4898559;29;20391;-83
2022/01/03 05:11:00;;;;;;;1.38;0.93;;;9.00;99.90;;;;;;4915801;29;20388;-84
2022/01/03 05:13:27;;;;;;;2.08;1.00;;;9.00;99.90;;;;;;4898665;29;20867;-83
2022/01/03 05:15:53;;;;;;;1.33;0.80;;;9.00;99.90;;;;;;4898694;29;21218;-81
2022/01/03 05:18:19;;;;;;;1.80;0.80;;;8.90;99.90;;;;;;4899939;29;20400;-83
2022/01/03 05:20:44;;;;;;;1.07;0.77;;;8.90;99.90;;;;;;4898954;29;20890;-82
2022/01/03 05:23:10;;;;;;;1.70;1.02;;;9.00;99.90;;;;;;4898517;29;20395;-82
2022/01/03 05:25:36;;;;;;;1.90;1.20;;;8.90;99.90;;;;;;4916249;29;20391;-83
2022/01/03 05:28:01;;;;;;;2.33;1.20;;;8.90;99.90;;;;;;4915855;29;20443;-82
2022/01/03 05:30:27;;;;;;;2.80;1.50;;;8.90;99.90;;;;;;4914393;29;20392;-82
2022/01/03 05:32:53;;;;;;;3.30;1.70;;;8.80;99.90;;;;;;4897105;29;20412;-82
2022/01/03 05:35:19;;;;;;;2.25;1.60;;;8.80;99.90;;;;;;4897994;29;20396;-81
2022/01/03 05:37:44;;;;;;;2.78;1.55;;;8.70;99.90;;;;;;4898660;29;20439;-81
2022/01/03 05:40:10;;;;;;;2.90;1.60;;;8.60;99.90;;;;;;4897784;29;20894;-82
2022/01/03 05:42:36;;;;;;;3.65;1.80;;;8.60;99.90;;;;;;4915327;29;20433;-82
2022/01/03 05:45:04;;;;;;;2.45;1.50;;;8.50;99.90;;;;;;4913503;29;20958;-82
2022/01/03 05:47:30;;;;;;;3.47;1.55;;;8.50;99.90;;;;;;4916203;29;20407;-82
2022/01/03 05:49:56;;;;;;;3.53;1.60;;;8.40;99.90;;;;;;4901440;29;20391;-82
2022/01/03 05:52:22;;;;;;;3.15;1.73;;;8.40;99.90;;;;;;4913953;29;20384;-82
2022/01/03 05:54:48;;;;;;;3.65;1.90;;;8.40;99.90;;;;;;4913607;29;20949;-82
2022/01/03 05:57:14;;;;;;;3.97;1.50;;;8.50;99.90;;;;;;4913681;29;20439;-81
2022/01/03 05:59:40;;;;;;;3.30;1.80;;;8.50;99.90;;;;;;4913480;29;20387;-82
2022/01/03 06:02:05;;;;;;;4.33;1.47;;;8.50;99.90;;;;;;4896714;29;20415;-83
2022/01/03 06:04:53;;;;;;;5.38;2.13;;;8.60;99.90;;;;;;4912414;29;20795;-82
2022/01/03 06:07:20;;;;;;;5.00;1.60;;;8.60;99.90;;;;;;4913822;29;20392;-82
2022/01/03 06:09:46;;;;;;;6.82;1.80;;;8.60;99.90;;;;;;4896724;29;20380;-82
2022/01/03 06:12:12;;;;;;;3.60;1.77;;;8.50;99.90;;;;;;4914316;29;20529;-84
2022/01/03 06:14:38;;;;;;;5.15;1.60;;;8.60;99.90;;;;;;4912539;29;20414;-82
2022/01/03 06:17:05;;;;;;;3.60;1.50;;;8.60;99.90;;;;;;4912123;29;20399;-82
2022/01/03 06:19:32;;;;;;;5.60;1.88;;;8.70;99.90;;;;;;4912658;29;20478;-82
2022/01/03 06:21:58;;;;;;;5.83;1.60;;;8.80;99.90;;;;;;4896022;29;20482;-82
2022/01/03 06:24:24;;;;;;;5.47;1.57;;;8.70;99.90;;;;;;4895347;29;20391;-81
2022/01/03 06:26:50;;;;;;;4.75;1.73;;;8.80;99.90;;;;;;4914192;29;20434;-82
2022/01/03 06:29:19;;;;;;;8.90;2.22;;;8.70;99.90;;;;;;4913518;29;20388;-82
2022/01/03 06:31:45;;;;;;;8.18;2.20;;;8.70;99.90;;;;;;4894990;29;20493;-81
2022/01/03 06:34:11;;;;;;;7.40;2.58;;;8.80;99.90;;;;;;4912705;29;20464;-82
2022/01/03 06:36:37;;;;;;;7.05;2.42;;;8.90;99.90;;;;;;4912638;29;20474;-82
2022/01/03 06:39:04;;;;;;;9.13;2.20;;;8.90;99.90;;;;;;4912810;29;20494;-83
2022/01/03 06:41:30;;;;;;;7.50;2.17;;;8.80;99.90;;;;;;4896594;29;20437;-81
2022/01/03 06:43:56;;;;;;;8.13;2.40;;;8.90;99.90;;;;;;4912593;29;20396;-83
2022/01/03 06:46:22;;;;;;;7.53;2.13;;;9.00;99.90;;;;;;4895920;29;20406;-82
2022/01/03 06:48:49;;;;;;;12.15;3.00;;;9.00;99.90;;;;;;4913450;29;20417;-82
2022/01/03 06:51:15;;;;;;;7.65;2.55;;;8.90;99.90;;;;;;4912612;29;20387;-83
2022/01/03 06:53:42;;;;;;;7.28;2.85;;;9.00;99.90;;;;;;4895566;29;20886;-82
2022/01/03 06:56:08;;;;;;;11.07;2.78;;;9.10;99.90;;;;;;4913198;29;20402;-82
2022/01/03 06:58:35;;;;;;;10.13;2.63;;;9.20;99.90;;;;;;4913943;29;20392;-82
2022/01/03 07:01:01;;;;;;;11.75;3.00;;;9.10;99.90;;;;;;4912789;29;20407;-82
2022/01/03 07:03:26;;;;;;;11.60;3.50;;;9.10;99.90;;;;;;4894435;29;20403;-82
2022/01/03 07:05:52;;;;;;;11.10;3.27;;;9.20;99.90;;;;;;4912780;29;20406;-82
2022/01/03 07:08:21;;;;;;;10.20;3.07;;;9.20;99.90;;;;;;4895462;29;20451;-83
2022/01/03 07:10:47;;;;;;;9.10;3.00;;;9.20;99.90;;;;;;4913805;29;20407;-82
2022/01/03 07:13:14;;;;;;;12.10;2.90;;;9.20;99.90;;;;;;4899633;29;20392;-83
2022/01/03 07:21:11;;;;;;;9.02;3.03;;;9.20;99.90;;;;;;4917392;29;20461;-81
2022/01/03 07:23:39;;;;;;;9.77;2.72;;;9.30;99.90;;;;;;4916609;29;20371;-82
2022/01/03 07:26:05;;;;;;;6.55;2.38;;;9.20;99.90;;;;;;4899064;29;20417;-81
2022/01/03 07:28:30;;;;;;;10.45;2.63;;;9.30;99.90;;;;;;4916639;29;20923;-83
2022/01/03 07:30:56;;;;;;;8.65;2.67;;;9.20;99.90;;;;;;4916325;29;20717;-82
2022/01/03 07:33:21;;;;;;;8.85;2.67;;;9.20;99.90;;;;;;4898330;29;20408;-83
2022/01/03 07:35:47;;;;;;;8.43;2.60;;;9.20;99.90;;;;;;4915903;29;20490;-82
2022/01/03 07:38:13;;;;;;;8.30;2.75;;;9.20;99.90;;;;;;4916128;29;20426;-83
2022/01/03 07:40:40;;;;;;;9.52;3.30;;;9.20;99.90;;;;;;4916388;29;20895;-83
2022/01/03 07:43:05;;;;;;;10.13;3.63;;;9.20;99.90;;;;;;4898741;29;20391;-83
2022/01/03 07:45:32;;;;;;;9.80;3.60;;;9.20;99.90;;;;;;4916081;29;20439;-82
2022/01/03 07:47:57;;;;;;;10.35;2.88;;;9.30;99.90;;;;;;4898517;29;20502;-81
2022/01/03 07:50:23;;;;;;;9.93;3.43;;;9.30;99.90;;;;;;4898991;29;20537;-82
2022/01/03 07:52:49;;;;;;;8.80;2.83;;;9.30;99.90;;;;;;4899530;29;20383;-82
2022/01/03 07:55:15;;;;;;;9.75;3.00;;;9.30;99.90;;;;;;4915561;29;20403;-82
2022/01/03 07:57:42;;;;;;;10.68;2.72;;;9.20;99.90;;;;;;4916271;29;20836;-83
2022/01/03 08:00:11;;;;;;;9.32;2.97;;;9.30;99.90;;;;;;4915422;29;20438;-81
2022/01/03 08:02:38;;;;;;;9.02;2.75;;;9.20;99.90;;;;;;4914939;29;20418;-82
2022/01/03 08:05:05;;;;;;;12.95;3.35;;;9.30;99.90;;;;;;4898106;29;20388;-82
2022/01/03 08:07:31;;;;;;;11.40;3.38;;;9.30;99.90;;;;;;4917172;29;20413;-80
2022/01/03 08:09:57;;;;;;;13.77;3.80;;;9.20;99.90;;;;;;4902145;29;20402;-80
2022/01/03 08:12:22;;;;;;;10.10;3.27;;;9.20;99.90;;;;;;4899640;29;20398;-82
2022/01/03 08:14:48;;;;;;;14.30;3.70;;;9.10;99.90;;;;;;4916471;29;20387;-81
2022/01/03 08:17:13;;;;;;;13.45;3.22;;;9.10;99.90;;;;;;4898588;29;20455;-81
2022/01/03 08:19:39;;;;;;;12.10;3.10;;;9.20;99.90;;;;;;4897914;29;20455;-81
2022/01/03 08:22:05;;;;;;;12.40;3.33;;;9.10;99.90;;;;;;4897665;29;20515;-82
2022/01/03 08:24:30;;;;;;;10.10;3.03;;;9.20;99.90;;;;;;4897650;29;20392;-81
2022/01/03 08:26:56;;;;;;;11.37;3.40;;;9.20;99.90;;;;;;4915691;29;20750;-81
2022/01/03 08:29:22;;;;;;;13.43;3.27;;;9.20;99.90;;;;;;4897687;29;20387;-80
2022/01/03 08:31:48;;;;;;;16.30;3.85;;;9.30;99.90;;;;;;4907881;29;20376;-82
2022/01/03 08:34:13;;;;;;;12.75;3.20;;;9.30;99.90;;;;;;4896399;29;20388;-81
2022/01/03 08:36:39;;;;;;;14.98;3.80;;;9.40;99.90;;;;;;4914700;29;20384;-82
2022/01/03 08:39:06;;;;;;;13.23;4.10;;;9.50;99.90;;;;;;4898006;29;20443;-81
2022/01/03 08:41:32;;;;;;;19.15;5.68;;;9.60;99.90;;;;;;4899067;29;20419;-81
2022/01/03 08:43:58;;;;;;;13.38;4.53;;;9.70;99.90;;;;;;4899955;29;20467;-81
2022/01/03 08:46:24;;;;;;;15.17;5.03;;;9.80;99.90;;;;;;4899594;29;20834;-81
2022/01/03 08:48:54;;;;;;;15.20;3.87;;;9.90;99.90;;;;;;4898431;29;20961;-81
2022/01/03 08:51:20;;;;;;;14.40;3.80;;;10.00;99.90;;;;;;4917585;29;20453;-81
2022/01/03 08:53:47;;;;;;;16.67;4.28;;;9.90;99.90;;;;;;4899750;29;20732;-81
2022/01/03 08:56:14;;;;;;;15.52;4.22;;;9.90;99.90;;;;;;4916708;29;20391;-80
2022/01/03 08:58:48;;;;;;;19.27;4.65;;;9.90;99.90;;;;;;4916594;29;20782;-81
2022/01/03 09:01:15;;;;;;;16.17;3.90;;;10.10;99.90;;;;;;4897650;29;20412;-81
2022/01/03 09:03:41;;;;;;;15.55;3.88;;;10.30;99.90;;;;;;4897803;29;20406;-81
2022/01/03 09:06:07;;;;;;;14.43;3.88;;;10.20;99.90;;;;;;4913868;29;20421;-81
2022/01/03 09:08:32;;;;;;;13.70;3.70;;;10.10;99.90;;;;;;4896583;29;20400;-82
2022/01/03 09:10:58;;;;;;;16.60;4.00;;;10.10;99.90;;;;;;4899197;29;20902;-81
2022/01/03 09:13:24;;;;;;;14.13;3.90;;;10.10;99.90;;;;;;4915647;29;20446;-81
2022/01/03 09:15:51;;;;;;;16.42;4.40;;;10.10;99.90;;;;;;4899730;29;20388;-81
2022/01/03 09:18:21;;;;;;;16.60;4.30;;;10.20;99.90;;;;;;4916943;29;20518;-81
2022/01/03 09:20:48;;;;;;;12.65;4.07;;;10.20;99.90;;;;;;4898650;29;20762;-81
2022/01/03 09:23:23;;;;;;;11.85;3.95;;;10.30;99.90;;;;;;4898670;29;20407;-81
2022/01/03 09:31:29;;;;;;;15.70;4.03;;;10.60;99.90;;;;;;4903881;29;20388;-81
2022/01/03 09:33:58;;;;;;;16.27;3.78;;;10.60;99.90;;;;;;4894894;29;20394;-81
2022/01/03 09:36:25;;;;;;;15.77;3.72;;;10.60;99.90;;;;;;4880083;29;20476;-81
2022/01/03 09:38:52;;;;;;;13.55;3.95;;;10.50;99.90;;;;;;4880542;29;20499;-81
2022/01/03 09:41:23;;;;;;;14.20;3.67;;;10.50;99.90;;;;;;4880958;29;20468;-80
2022/01/03 09:43:56;;;;;;;12.55;3.97;;;10.50;99.90;;;;;;4909832;29;20427;-81
2022/01/03 09:46:33;;;;;;;11.70;3.50;;;10.40;99.90;;;;;;4915655;29;20403;-82
2022/01/03 09:48:59;;;;;;;12.02;3.33;;;10.40;99.90;;;;;;4913938;29;20435;-81
2022/01/03 09:51:31;;;;;;;15.20;4.00;;;10.40;99.90;;;;;;4915834;29;20418;-80
2022/01/03 09:53:59;;;;;;;16.73;4.15;;;10.30;99.90;;;;;;4898791;29;20392;-81
2022/01/03 09:56:29;;;;;;;13.93;4.10;;;10.20;99.90;;;;;;4899543;29;20982;-82
2022/01/03 09:58:55;;;;;;;16.15;4.22;;;10.10;99.90;;;;;;4899446;29;20392;-82
2022/01/03 10:01:21;;;;;;;17.42;4.70;;;10.20;99.90;;;;;;4913260;29;20419;-82
2022/01/03 10:03:49;;;;;;;16.73;4.57;;;10.20;99.90;;;;;;4909469;29;20411;-81
2022/01/03 10:06:18;;;;;;;13.52;4.00;;;10.20;99.90;;;;;;4896481;29;20426;-83
2022/01/03 10:08:45;;;;;;;17.43;4.73;;;10.30;99.90;;;;;;4912735;29;20392;-83
2022/01/03 10:11:11;;;;;;;17.67;4.45;;;10.40;99.90;;;;;;4898018;29;20415;-83
2022/01/03 10:13:37;;;;;;;14.17;4.60;;;10.40;99.90;;;;;;4899029;29;20388;-81
2022/01/03 10:16:03;;;;;;;17.35;4.50;;;10.60;99.90;;;;;;4899693;29;20403;-80
2022/01/03 10:18:29;;;;;;;17.80;4.88;;;10.90;99.90;;;;;;4916552;29;20396;-81
2022/01/03 10:20:56;;;;;;;16.77;4.68;;;11.10;99.90;;;;;;4899116;29;20407;-82
2022/01/03 10:23:21;;;;;;;15.90;4.80;;;11.20;99.90;;;;;;4915689;29;20858;-82
2022/01/03 10:25:47;;;;;;;18.65;5.13;;;11.50;99.90;;;;;;4898983;29;20467;-79
2022/01/03 10:28:37;;;;;;;17.65;5.28;;;11.60;99.90;;;;;;4916986;29;20395;-81
2022/01/03 10:31:17;;;;;;;17.02;4.72;;;11.60;99.90;;;;;;4900596;29;20407;-80
2022/01/03 10:33:43;;;;;;;16.27;5.20;;;11.60;99.90;;;;;;4914384;29;20391;-80
2022/01/03 10:36:32;;;;;;;15.05;4.80;;;11.60;99.90;;;;;;4902567;29;20788;-79
2022/01/03 10:38:59;;;;;;;17.95;4.70;;;11.40;99.90;;;;;;4900337;29;20685;-79
2022/01/03 10:41:25;;;;;;;16.20;4.97;;;11.30;99.90;;;;;;4900078;29;20419;-80
2022/01/03 10:43:58;;;;;;;20.37;5.23;;;11.20;99.90;;;;;;4901075;29;20394;-80
2022/01/03 10:46:27;;;;;;;18.17;5.40;;;11.10;99.90;;;;;;4921102;29;20387;-80
2022/01/03 10:49:19;;;;;;;22.02;5.80;;;11.00;99.90;;;;;;4905932;29;20414;-81
2022/01/03 10:51:46;;;;;;;21.48;5.53;;;11.00;99.90;;;;;;4924648;29;20489;-79
2022/01/03 10:54:16;;;;;;;17.73;5.45;;;11.00;99.90;;;;;;4923417;29;20401;-81
2022/01/03 10:56:48;;;;;;;20.45;5.85;;;11.10;99.90;;;;;;4926295;29;20387;-81
2022/01/03 10:59:24;;;;;;;16.60;5.53;;;11.00;99.90;;;;;;4925637;29;20390;-80
2022/01/03 11:01:59;;;;;;;18.42;5.95;;;10.90;99.90;;;;;;4920417;29;20419;-82
2022/01/03 11:04:34;;;;;;;21.07;6.27;;;10.90;99.90;;;;;;4917123;29;20430;-79
2022/01/03 11:13:11;;;;;;;15.15;5.65;;;10.80;99.90;;;;;;4918516;29;20905;-81
2022/01/03 11:15:39;;;;;;;21.67;6.30;;;10.80;99.90;;;;;;4901051;29;20458;-81
2022/01/03 11:18:07;;;;;;;18.02;6.22;;;10.80;99.90;;;;;;4918448;29;20403;-81
2022/01/03 11:20:33;;;;;;;16.60;5.53;;;10.80;99.90;;;;;;4920226;29;20502;-82
2022/01/03 11:22:59;;;;;;;19.70;5.68;;;10.90;99.90;;;;;;4918669;29;20514;-80
2022/01/03 11:25:30;;;;;;;19.13;5.70;;;11.00;99.90;;;;;;4918488;29;20480;-81
2022/01/03 11:27:56;;;;;;;16.55;5.38;;;11.20;99.90;;;;;;4919233;29;20396;-81
2022/01/03 11:30:22;;;;;;;17.40;5.20;;;11.50;99.90;;;;;;4920351;29;20901;-80
2022/01/03 11:32:49;;;;;;;18.70;5.85;;;11.60;99.90;;;;;;4901879;29;20403;-80
2022/01/03 11:35:15;;;;;;;17.65;5.35;;;11.50;99.90;;;;;;4919183;29;20875;-81
2022/01/03 11:37:45;;;;;;;21.10;7.33;;;11.30;99.90;;;;;;4919861;29;20394;-81
2022/01/03 11:40:13;;;;;;;16.65;5.05;;;11.40;99.90;;;;;;4918083;29;20399;-81
2022/01/03 11:42:39;;;;;;;15.82;5.75;;;11.30;99.90;;;;;;4901405;29;20430;-81
2022/01/03 11:45:05;;;;;;;18.63;5.78;;;11.20;99.90;;;;;;4901128;29;20404;-80
2022/01/03 11:47:35;;;;;;;18.67;5.60;;;11.00;99.90;;;;;;4920767;29;20407;-81
2022/01/03 11:50:01;;;;;;;16.55;5.53;;;11.00;99.90;;;;;;4901689;29;20395;-81
2022/01/03 11:52:28;;;;;;;16.95;5.32;;;11.10;99.90;;;;;;4919345;29;20427;-81
2022/01/03 11:54:55;;;;;;;19.70;5.30;;;11.20;99.90;;;;;;4902459;29;20394;-81
2022/01/03 11:57:46;;;;;;;15.90;5.40;;;11.10;99.90;;;;;;4918681;29;20384;-81
2022/01/03 12:05:52;;;;;;;16.95;6.07;;;11.40;99.90;;;;;;4915922;29;20371;-81
2022/01/03 12:08:30;;;;;;;19.70;6.13;;;11.30;99.90;;;;;;4897637;29;20528;-81
2022/01/03 12:11:00;;;;;;;17.55;5.50;;;11.40;99.90;;;;;;4916960;29;20391;-80
2022/01/03 12:13:48;;;;;;;18.80;5.90;;;11.40;99.90;;;;;;4916710;29;20479;-81
2022/01/03 12:16:14;;;;;;;16.07;5.77;;;11.40;99.90;;;;;;4914066;29;20411;-80
2022/01/03 12:19:00;;;;;;;16.67;5.53;;;11.40;99.90;;;;;;4906431;29;20506;-81
2022/01/03 12:21:48;;;;;;;17.17;5.53;;;11.40;99.90;;;;;;4916184;29;20415;-81
2022/01/03 12:24:29;;;;;;;19.90;5.75;;;11.40;99.90;;;;;;4911518;29;20403;-80
2022/01/03 12:27:10;;;;;;;15.07;5.15;;;11.20;99.90;;;;;;4908292;29;20422;-82
2022/01/03 12:29:54;;;;;;;17.98;5.70;;;11.30;99.90;;;;;;4915175;29;20399;-83
2022/01/03 12:32:34;;;;;;;17.55;6.05;;;11.30;99.90;;;;;;4914635;29;20387;-82
2022/01/03 12:35:16;;;;;;;17.63;5.40;;;11.40;99.90;;;;;;4898610;29;20391;-82
2022/01/03 12:37:54;;;;;;;16.40;5.45;;;11.30;99.90;;;;;;4914132;29;20486;-81
2022/01/03 12:40:46;;;;;;;18.50;5.60;;;11.30;99.90;;;;;;4913936;29;20407;-80
2022/01/03 12:43:16;;;;;;;16.75;5.13;;;11.30;99.90;;;;;;4906516;29;20407;-79
2022/01/03 12:45:43;;;;;;;16.85;5.40;;;11.30;99.90;;;;;;4913124;29;20403;-79
2022/01/03 12:50:59;;;;;;;19.10;5.67;;;11.20;99.90;;;;;;4913193;29;20388;-81
2022/01/03 12:53:27;;;;;;;19.45;6.03;;;11.20;99.90;;;;;;4895699;29;20402;-80
2022/01/03 12:56:07;;;;;;;14.35;5.28;;;11.20;99.90;;;;;;4895842;29;20396;-79
2022/01/03 12:58:32;;;;;;;15.68;5.38;;;11.00;99.90;;;;;;4896448;29;20878;-80
2022/01/03 13:00:59;;;;;;;18.08;5.68;;;11.00;99.90;;;;;;4911678;29;20399;-82
2022/01/03 13:03:33;;;;;;;16.48;5.30;;;11.00;99.90;;;;;;4893910;29;20427;-81
2022/01/03 13:06:07;;;;;;;14.35;5.88;;;11.00;99.90;;;;;;4913620;29;20981;-81
2022/01/03 13:08:34;;;;;;;15.80;5.15;;;11.00;99.90;;;;;;4914221;29;20392;-80
2022/01/03 13:11:08;;;;;;;16.70;5.63;;;11.00;99.90;;;;;;4896264;29;20889;-81
2022/01/03 13:13:37;;;;;;;18.00;5.33;;;11.00;99.90;;;;;;4875714;29;20404;-80
2022/01/03 13:16:20;;;;;;;17.30;5.80;;;11.20;99.90;;;;;;4913331;29;20456;-81
2022/01/03 13:18:54;;;;;;;21.02;6.05;;;11.40;99.90;;;;;;4913316;29;20399;-80
2022/01/03 13:21:23;;;;;;;15.88;4.97;;;11.50;99.90;;;;;;4913121;29;20455;-80
2022/01/03 13:23:52;;;;;;;17.17;5.27;;;11.50;99.90;;;;;;4912759;29;20399;-80